sensor_id;sensor_type;location;lat;lon;timestamp;temperature;humidity
5560;DHT22;2803;47.916;8.074;2023-03-20T00:00:29;8.70;99.90
5560;DHT22;2803;47.916;8.074;2023-03-20T00:02:56;8.80;99.90
5560;DHT22;2803;47.916;8.074;2023-03-20T00:05:24;9.10;99.90
5560;DHT22;2803;47.916;8.074;2023-03-20T00:07:51;9.30;99.90
5560;DHT22;2803;47.916;8.074;2023-03-20T00:10:19;9.30;99.90
5560;DHT22;2803;47.916;8.074;2023-03-20T00:12:48;9.10;99.90
5560;DHT22;2803;47.916;8.074;2023-03-20T00:15:23;8.60;99.90
5560;DHT22;2803;47.916;8.074;2023-03-20T00:17:51;9.00;99.90
5560;DHT22;2803;47.916;8.074;2023-03-20T00:20:18;9.20;99.90
5560;DHT22;2803;47.916;8.074;2023-03-20T00:22:44;9.40;99.90
5560;DHT22;2803;47.916;8.074;2023-03-20T00:25:13;9.40;99.90
5560;DHT22;2803;47.916;8.074;2023-03-20T00:27:41;9.40;99.90
5560;DHT22;2803;47.916;8.074;2023-03-20T00:30:19;9.40;99.90
5560;DHT22;2803;47.916;8.074;2023-03-20T00:32:46;9.50;99.90
5560;DHT22;2803;47.916;8.074;2023-03-20T00:35:22;9.60;99.90
5560;DHT22;2803;47.916;8.074;2023-03-20T00:37:51;9.50;99.90
5560;DHT22;2803;47.916;8.074;2023-03-20T00:40:18;9.40;99.90
5560;DHT22;2803;47.916;8.074;2023-03-20T00:42:46;9.50;99.90
5560;DHT22;2803;47.916;8.074;2023-03-20T00:45:17;9.50;99.90
5560;DHT22;2803;47.916;8.074;2023-03-20T00:47:46;9.30;99.90
5560;DHT22;2803;47.916;8.074;2023-03-20T00:50:17;9.20;99.90
5560;DHT22;2803;47.916;8.074;2023-03-20T00:52:46;9.30;99.90
5560;DHT22;2803;47.916;8.074;2023-03-20T00:55:13;9.40;99.90
5560;DHT22;2803;47.916;8.074;2023-03-20T00:57:43;9.70;99.90
5560;DHT22;2803;47.916;8.074;2023-03-20T01:03:01;9.80;99.90
5560;DHT22;2803;47.916;8.074;2023-03-20T01:05:31;9.80;99.90
5560;DHT22;2803;47.916;8.074;2023-03-20T01:07:57;9.90;99.90
5560;DHT22;2803;47.916;8.074;2023-03-20T01:10:28;9.90;99.90
5560;DHT22;2803;47.916;8.074;2023-03-20T01:12:57;10.00;99.90
5560;DHT22;2803;47.916;8.074;2023-03-20T01:15:30;10.00;99.90
5560;DHT22;2803;47.916;8.074;2023-03-20T01:17:57;10.10;99.90
5560;DHT22;2803;47.916;8.074;2023-03-20T01:20:26;10.10;99.90
5560;DHT22;2803;47.916;8.074;2023-03-20T01:22:54;10.20;99.90
5560;DHT22;2803;47.916;8.074;2023-03-20T01:25:21;10.20;99.90
5560;DHT22;2803;47.916;8.074;2023-03-20T01:27:50;10.20;99.90
5560;DHT22;2803;47.916;8.074;2023-03-20T01:30:20;10.30;99.90
5560;DHT22;2803;47.916;8.074;2023-03-20T01:32:48;10.30;99.90
5560;DHT22;2803;47.916;8.074;2023-03-20T01:35:17;10.30;99.90
5560;DHT22;2803;47.916;8.074;2023-03-20T01:37:45;10.30;99.90
5560;DHT22;2803;47.916;8.074;2023-03-20T01:40:25;10.30;99.90
5560;DHT22;2803;47.916;8.074;2023-03-20T01:42:53;10.30;99.90
5560;DHT22;2803;47.916;8.074;2023-03-20T01:45:21;10.40;99.90
5560;DHT22;2803;47.916;8.074;2023-03-20T01:47:50;10.40;99.90
5560;DHT22;2803;47.916;8.074;2023-03-20T01:50:21;10.40;99.90
5560;DHT22;2803;47.916;8.074;2023-03-20T01:52:51;10.00;99.90
5560;DHT22;2803;47.916;8.074;2023-03-20T01:55:20;10.30;99.90
5560;DHT22;2803;47.916;8.074;2023-03-20T01:57:47;10.40;99.90
5560;DHT22;2803;47.916;8.074;2023-03-20T02:00:15;10.40;99.90
5560;DHT22;2803;47.916;8.074;2023-03-20T02:02:44;10.40;99.90
5560;DHT22;2803;47.916;8.074;2023-03-20T02:05:14;10.40;99.90
5560;DHT22;2803;47.916;8.074;2023-03-20T02:07:46;10.50;99.90
5560;DHT22;2803;47.916;8.074;2023-03-20T02:10:16;10.50;99.90
5560;DHT22;2803;47.916;8.074;2023-03-20T02:12:44;10.40;99.90
5560;DHT22;2803;47.916;8.074;2023-03-20T02:15:13;10.30;99.90
5560;DHT22;2803;47.916;8.074;2023-03-20T02:17:41;10.40;99.90
5560;DHT22;2803;47.916;8.074;2023-03-20T02:20:16;10.30;99.90
5560;DHT22;2803;47.916;8.074;2023-03-20T02:25:57;10.20;99.90
5560;DHT22;2803;47.916;8.074;2023-03-20T02:31:47;10.40;99.90
5560;DHT22;2803;47.916;8.074;2023-03-20T02:34:38;10.50;99.90
5560;DHT22;2803;47.916;8.074;2023-03-20T02:37:30;10.60;99.90
5560;DHT22;2803;47.916;8.074;2023-03-20T02:40:11;10.60;99.90
5560;DHT22;2803;47.916;8.074;2023-03-20T02:42:45;10.70;99.90
5560;DHT22;2803;47.916;8.074;2023-03-20T02:45:21;10.70;99.90
5560;DHT22;2803;47.916;8.074;2023-03-20T02:47:55;10.60;99.90
5560;DHT22;2803;47.916;8.074;2023-03-20T02:50:32;10.40;99.90
5560;DHT22;2803;47.916;8.074;2023-03-20T02:53:12;10.60;99.90
5560;DHT22;2803;47.916;8.074;2023-03-20T02:55:45;10.60;99.90
5560;DHT22;2803;47.916;8.074;2023-03-20T02:58:15;10.60;99.90
5560;DHT22;2803;47.916;8.074;2023-03-20T03:00:47;10.60;99.90
5560;DHT22;2803;47.916;8.074;2023-03-20T03:03:18;10.60;99.90
5560;DHT22;2803;47.916;8.074;2023-03-20T03:05:50;10.60;99.90
5560;DHT22;2803;47.916;8.074;2023-03-20T03:08:22;10.60;99.90
5560;DHT22;2803;47.916;8.074;2023-03-20T03:10:52;10.70;99.90
5560;DHT22;2803;47.916;8.074;2023-03-20T03:13:25;10.60;99.90
5560;DHT22;2803;47.916;8.074;2023-03-20T03:15:56;10.60;99.90
5560;DHT22;2803;47.916;8.074;2023-03-20T03:18:28;10.60;99.90
5560;DHT22;2803;47.916;8.074;2023-03-20T03:20:58;10.40;99.90
5560;DHT22;2803;47.916;8.074;2023-03-20T03:23:28;10.50;99.90
5560;DHT22;2803;47.916;8.074;2023-03-20T03:25:57;10.50;99.90
5560;DHT22;2803;47.916;8.074;2023-03-20T03:28:28;10.60;99.90
5560;DHT22;2803;47.916;8.074;2023-03-20T03:31:02;10.50;99.90
5560;DHT22;2803;47.916;8.074;2023-03-20T03:33:30;10.60;99.90
5560;DHT22;2803;47.916;8.074;2023-03-20T03:36:02;10.70;99.90
5560;DHT22;2803;47.916;8.074;2023-03-20T03:38:39;10.70;99.90
5560;DHT22;2803;47.916;8.074;2023-03-20T03:41:18;10.70;99.90
5560;DHT22;2803;47.916;8.074;2023-03-20T03:43:51;10.80;99.90
5560;DHT22;2803;47.916;8.074;2023-03-20T03:46:24;10.70;99.90
5560;DHT22;2803;47.916;8.074;2023-03-20T03:48:56;10.80;99.90
5560;DHT22;2803;47.916;8.074;2023-03-20T03:51:27;10.80;99.90
5560;DHT22;2803;47.916;8.074;2023-03-20T03:53:59;10.70;99.90
5560;DHT22;2803;47.916;8.074;2023-03-20T03:56:29;10.80;99.90
5560;DHT22;2803;47.916;8.074;2023-03-20T03:58:59;10.80;99.90
5560;DHT22;2803;47.916;8.074;2023-03-20T04:01:30;10.90;99.90
5560;DHT22;2803;47.916;8.074;2023-03-20T04:04:00;11.00;99.90
5560;DHT22;2803;47.916;8.074;2023-03-20T04:06:28;10.80;99.90
5560;DHT22;2803;47.916;8.074;2023-03-20T04:08:56;11.00;99.90
5560;DHT22;2803;47.916;8.074;2023-03-20T04:11:24;11.10;99.90
5560;DHT22;2803;47.916;8.074;2023-03-20T04:13:52;11.00;99.90
5560;DHT22;2803;47.916;8.074;2023-03-20T04:16:22;11.10;99.90
5560;DHT22;2803;47.916;8.074;2023-03-20T04:18:49;11.10;99.90
5560;DHT22;2803;47.916;8.074;2023-03-20T04:21:16;11.00;99.90
5560;DHT22;2803;47.916;8.074;2023-03-20T04:23:43;10.90;99.90
5560;DHT22;2803;47.916;8.074;2023-03-20T04:26:11;10.90;99.90
5560;DHT22;2803;47.916;8.074;2023-03-20T04:28:38;11.00;99.90
5560;DHT22;2803;47.916;8.074;2023-03-20T04:31:05;10.90;99.90
5560;DHT22;2803;47.916;8.074;2023-03-20T04:33:32;10.90;99.90
5560;DHT22;2803;47.916;8.074;2023-03-20T04:35:58;11.00;99.90
5560;DHT22;2803;47.916;8.074;2023-03-20T04:38:25;11.00;99.90
5560;DHT22;2803;47.916;8.074;2023-03-20T04:40:52;11.00;99.90
5560;DHT22;2803;47.916;8.074;2023-03-20T04:43:20;10.90;99.90
5560;DHT22;2803;47.916;8.074;2023-03-20T04:45:46;11.00;99.90
5560;DHT22;2803;47.916;8.074;2023-03-20T04:48:13;11.10;99.90
5560;DHT22;2803;47.916;8.074;2023-03-20T04:50:40;11.10;99.90
5560;DHT22;2803;47.916;8.074;2023-03-20T04:53:06;11.10;99.90
5560;DHT22;2803;47.916;8.074;2023-03-20T04:55:33;11.00;99.90
5560;DHT22;2803;47.916;8.074;2023-03-20T04:57:59;10.90;99.90
5560;DHT22;2803;47.916;8.074;2023-03-20T05:00:27;10.90;99.90
5560;DHT22;2803;47.916;8.074;2023-03-20T05:02:54;11.00;99.90
5560;DHT22;2803;47.916;8.074;2023-03-20T05:05:21;11.10;99.90
5560;DHT22;2803;47.916;8.074;2023-03-20T05:07:48;11.10;99.90
5560;DHT22;2803;47.916;8.074;2023-03-20T05:10:14;11.00;99.90
5560;DHT22;2803;47.916;8.074;2023-03-20T05:12:41;11.00;99.90
5560;DHT22;2803;47.916;8.074;2023-03-20T05:15:08;11.10;99.90
5560;DHT22;2803;47.916;8.074;2023-03-20T05:17:36;11.10;99.90
5560;DHT22;2803;47.916;8.074;2023-03-20T05:20:04;11.10;99.90
5560;DHT22;2803;47.916;8.074;2023-03-20T05:22:31;10.80;99.90
5560;DHT22;2803;47.916;8.074;2023-03-20T05:24:57;10.50;99.90
5560;DHT22;2803;47.916;8.074;2023-03-20T05:27:25;10.30;99.90
5560;DHT22;2803;47.916;8.074;2023-03-20T05:29:51;10.50;99.90
5560;DHT22;2803;47.916;8.074;2023-03-20T05:32:18;10.80;99.90
5560;DHT22;2803;47.916;8.074;2023-03-20T05:34:46;10.80;99.90
5560;DHT22;2803;47.916;8.074;2023-03-20T05:37:12;10.90;99.90
5560;DHT22;2803;47.916;8.074;2023-03-20T05:39:39;10.90;99.90
5560;DHT22;2803;47.916;8.074;2023-03-20T05:42:06;11.00;99.90
5560;DHT22;2803;47.916;8.074;2023-03-20T05:44:32;11.00;99.90
5560;DHT22;2803;47.916;8.074;2023-03-20T05:46:59;10.90;99.90
5560;DHT22;2803;47.916;8.074;2023-03-20T05:49:25;11.00;99.90
5560;DHT22;2803;47.916;8.074;2023-03-20T05:51:53;11.10;99.90
5560;DHT22;2803;47.916;8.074;2023-03-20T05:54:20;11.20;99.90
5560;DHT22;2803;47.916;8.074;2023-03-20T05:56:46;11.20;99.90
5560;DHT22;2803;47.916;8.074;2023-03-20T05:59:13;11.20;99.90
5560;DHT22;2803;47.916;8.074;2023-03-20T06:01:40;11.20;99.90
5560;DHT22;2803;47.916;8.074;2023-03-20T06:04:06;11.20;99.90
5560;DHT22;2803;47.916;8.074;2023-03-20T06:06:33;11.20;99.90
5560;DHT22;2803;47.916;8.074;2023-03-20T06:09:03;11.30;99.90
5560;DHT22;2803;47.916;8.074;2023-03-20T06:11:30;11.20;99.90
5560;DHT22;2803;47.916;8.074;2023-03-20T06:13:57;11.20;99.90
5560;DHT22;2803;47.916;8.074;2023-03-20T06:16:23;11.30;99.90
5560;DHT22;2803;47.916;8.074;2023-03-20T06:18:51;11.40;99.90
5560;DHT22;2803;47.916;8.074;2023-03-20T06:21:17;11.40;99.90
5560;DHT22;2803;47.916;8.074;2023-03-20T06:23:44;11.40;99.90
5560;DHT22;2803;47.916;8.074;2023-03-20T06:26:12;11.40;99.90
5560;DHT22;2803;47.916;8.074;2023-03-20T06:28:39;11.40;99.90
5560;DHT22;2803;47.916;8.074;2023-03-20T06:31:05;11.40;99.90
5560;DHT22;2803;47.916;8.074;2023-03-20T06:33:34;11.40;99.90
5560;DHT22;2803;47.916;8.074;2023-03-20T06:36:00;11.50;99.90
5560;DHT22;2803;47.916;8.074;2023-03-20T06:38:28;11.50;99.90
5560;DHT22;2803;47.916;8.074;2023-03-20T06:40:55;11.50;99.90
5560;DHT22;2803;47.916;8.074;2023-03-20T06:43:23;11.60;99.90
5560;DHT22;2803;47.916;8.074;2023-03-20T06:45:49;11.60;99.90
5560;DHT22;2803;47.916;8.074;2023-03-20T06:48:16;11.50;99.90
5560;DHT22;2803;47.916;8.074;2023-03-20T06:50:46;11.60;99.90
5560;DHT22;2803;47.916;8.074;2023-03-20T06:53:13;11.60;99.90
5560;DHT22;2803;47.916;8.074;2023-03-20T06:55:39;11.70;99.90
5560;DHT22;2803;47.916;8.074;2023-03-20T06:58:06;11.80;99.90
5560;DHT22;2803;47.916;8.074;2023-03-20T07:00:34;11.80;99.90
5560;DHT22;2803;47.916;8.074;2023-03-20T07:03:02;11.70;99.90
5560;DHT22;2803;47.916;8.074;2023-03-20T07:05:29;11.70;99.90
5560;DHT22;2803;47.916;8.074;2023-03-20T07:07:55;11.80;99.90
5560;DHT22;2803;47.916;8.074;2023-03-20T07:10:22;11.90;99.90
5560;DHT22;2803;47.916;8.074;2023-03-20T07:12:49;12.00;99.90
5560;DHT22;2803;47.916;8.074;2023-03-20T07:15:16;11.90;99.90
5560;DHT22;2803;47.916;8.074;2023-03-20T07:17:44;12.00;99.90
5560;DHT22;2803;47.916;8.074;2023-03-20T07:20:12;11.90;99.90
5560;DHT22;2803;47.916;8.074;2023-03-20T07:22:39;12.10;99.90
5560;DHT22;2803;47.916;8.074;2023-03-20T07:25:07;12.20;99.90
5560;DHT22;2803;47.916;8.074;2023-03-20T07:27:34;12.20;99.90
5560;DHT22;2803;47.916;8.074;2023-03-20T07:30:02;12.30;99.90
5560;DHT22;2803;47.916;8.074;2023-03-20T07:32:29;12.20;99.90
5560;DHT22;2803;47.916;8.074;2023-03-20T07:34:57;12.10;99.90
5560;DHT22;2803;47.916;8.074;2023-03-20T07:37:23;11.60;99.90
5560;DHT22;2803;47.916;8.074;2023-03-20T07:39:50;11.80;99.90
5560;DHT22;2803;47.916;8.074;2023-03-20T07:42:17;12.00;99.90
5560;DHT22;2803;47.916;8.074;2023-03-20T07:44:44;11.90;99.90
5560;DHT22;2803;47.916;8.074;2023-03-20T07:47:10;11.90;99.90
5560;DHT22;2803;47.916;8.074;2023-03-20T07:49:37;11.70;99.90
5560;DHT22;2803;47.916;8.074;2023-03-20T07:52:05;11.80;99.90
5560;DHT22;2803;47.916;8.074;2023-03-20T07:54:32;11.60;99.90
5560;DHT22;2803;47.916;8.074;2023-03-20T07:56:59;11.50;99.90
5560;DHT22;2803;47.916;8.074;2023-03-20T07:59:26;11.60;99.90
5560;DHT22;2803;47.916;8.074;2023-03-20T08:01:53;11.70;99.90
5560;DHT22;2803;47.916;8.074;2023-03-20T08:04:19;11.80;99.90
5560;DHT22;2803;47.916;8.074;2023-03-20T08:06:47;12.00;99.90
5560;DHT22;2803;47.916;8.074;2023-03-20T08:09:15;11.90;99.90
5560;DHT22;2803;47.916;8.074;2023-03-20T08:11:42;11.90;99.90
5560;DHT22;2803;47.916;8.074;2023-03-20T08:14:09;11.80;99.90
5560;DHT22;2803;47.916;8.074;2023-03-20T08:16:35;11.70;99.90
5560;DHT22;2803;47.916;8.074;2023-03-20T08:19:02;11.80;99.90
5560;DHT22;2803;47.916;8.074;2023-03-20T08:21:30;12.00;99.90
5560;DHT22;2803;47.916;8.074;2023-03-20T08:23:58;11.90;99.90
5560;DHT22;2803;47.916;8.074;2023-03-20T08:26:26;12.00;99.90
5560;DHT22;2803;47.916;8.074;2023-03-20T08:28:52;11.90;99.90
5560;DHT22;2803;47.916;8.074;2023-03-20T08:31:19;11.70;99.90
5560;DHT22;2803;47.916;8.074;2023-03-20T08:33:46;11.40;99.90
5560;DHT22;2803;47.916;8.074;2023-03-20T08:36:14;11.50;99.90
5560;DHT22;2803;47.916;8.074;2023-03-20T08:38:41;11.30;99.90
5560;DHT22;2803;47.916;8.074;2023-03-20T08:41:08;11.50;99.90
5560;DHT22;2803;47.916;8.074;2023-03-20T08:43:36;11.70;99.90
5560;DHT22;2803;47.916;8.074;2023-03-20T08:46:04;11.80;99.90
5560;DHT22;2803;47.916;8.074;2023-03-20T08:48:30;11.90;99.90
5560;DHT22;2803;47.916;8.074;2023-03-20T08:50:57;12.00;99.90
5560;DHT22;2803;47.916;8.074;2023-03-20T08:53:24;12.10;99.90
5560;DHT22;2803;47.916;8.074;2023-03-20T08:55:52;12.20;99.90
5560;DHT22;2803;47.916;8.074;2023-03-20T08:58:20;12.10;99.90
5560;DHT22;2803;47.916;8.074;2023-03-20T09:00:48;11.80;99.90
5560;DHT22;2803;47.916;8.074;2023-03-20T09:03:17;12.00;99.90
5560;DHT22;2803;47.916;8.074;2023-03-20T09:05:44;11.80;99.90
5560;DHT22;2803;47.916;8.074;2023-03-20T09:08:11;11.70;99.90
5560;DHT22;2803;47.916;8.074;2023-03-20T09:10:38;11.60;99.90
5560;DHT22;2803;47.916;8.074;2023-03-20T09:13:05;12.00;99.90
5560;DHT22;2803;47.916;8.074;2023-03-20T09:15:31;12.30;99.90
5560;DHT22;2803;47.916;8.074;2023-03-20T09:17:59;12.60;99.90
5560;DHT22;2803;47.916;8.074;2023-03-20T09:20:26;12.50;99.90
5560;DHT22;2803;47.916;8.074;2023-03-20T09:22:53;12.30;99.90
5560;DHT22;2803;47.916;8.074;2023-03-20T09:25:19;12.00;99.90
5560;DHT22;2803;47.916;8.074;2023-03-20T09:27:46;12.20;99.90
5560;DHT22;2803;47.916;8.074;2023-03-20T09:30:16;12.50;99.90
5560;DHT22;2803;47.916;8.074;2023-03-20T09:32:43;12.90;99.90
5560;DHT22;2803;47.916;8.074;2023-03-20T09:35:11;12.80;99.90
5560;DHT22;2803;47.916;8.074;2023-03-20T09:37:37;12.70;99.90
5560;DHT22;2803;47.916;8.074;2023-03-20T09:40:05;12.80;99.90
5560;DHT22;2803;47.916;8.074;2023-03-20T09:42:39;12.90;99.90
5560;DHT22;2803;47.916;8.074;2023-03-20T09:45:12;12.80;99.90
5560;DHT22;2803;47.916;8.074;2023-03-20T09:47:46;12.90;99.90
5560;DHT22;2803;47.916;8.074;2023-03-20T09:50:24;13.20;99.90
5560;DHT22;2803;47.916;8.074;2023-03-20T09:52:57;13.20;99.90
5560;DHT22;2803;47.916;8.074;2023-03-20T09:55:30;13.10;99.90
5560;DHT22;2803;47.916;8.074;2023-03-20T09:58:03;13.10;99.90
5560;DHT22;2803;47.916;8.074;2023-03-20T10:00:33;13.30;99.90
5560;DHT22;2803;47.916;8.074;2023-03-20T10:03:03;13.40;99.90
5560;DHT22;2803;47.916;8.074;2023-03-20T10:05:35;13.70;99.90
5560;DHT22;2803;47.916;8.074;2023-03-20T10:08:06;14.00;99.90
5560;DHT22;2803;47.916;8.074;2023-03-20T10:10:43;13.50;99.90
5560;DHT22;2803;47.916;8.074;2023-03-20T10:13:26;13.40;99.90
5560;DHT22;2803;47.916;8.074;2023-03-20T10:15:58;13.20;99.90
5560;DHT22;2803;47.916;8.074;2023-03-20T10:18:28;13.20;99.90
5560;DHT22;2803;47.916;8.074;2023-03-20T10:21:04;13.50;99.90
5560;DHT22;2803;47.916;8.074;2023-03-20T10:23:34;13.30;99.90
5560;DHT22;2803;47.916;8.074;2023-03-20T10:26:05;13.20;99.90
5560;DHT22;2803;47.916;8.074;2023-03-20T10:28:39;13.20;99.90
5560;DHT22;2803;47.916;8.074;2023-03-20T10:31:18;13.30;99.90
5560;DHT22;2803;47.916;8.074;2023-03-20T10:33:55;13.30;99.90
5560;DHT22;2803;47.916;8.074;2023-03-20T10:36:36;13.60;99.90
5560;DHT22;2803;47.916;8.074;2023-03-20T10:39:11;13.80;99.90
5560;DHT22;2803;47.916;8.074;2023-03-20T10:41:42;13.30;99.90
5560;DHT22;2803;47.916;8.074;2023-03-20T10:44:16;13.30;99.90
5560;DHT22;2803;47.916;8.074;2023-03-20T10:46:47;13.00;99.90
5560;DHT22;2803;47.916;8.074;2023-03-20T10:49:19;13.20;99.90
5560;DHT22;2803;47.916;8.074;2023-03-20T10:51:55;13.20;99.90
5560;DHT22;2803;47.916;8.074;2023-03-20T10:54:26;13.50;99.90
5560;DHT22;2803;47.916;8.074;2023-03-20T10:56:55;13.40;99.90
5560;DHT22;2803;47.916;8.074;2023-03-20T10:59:24;13.30;99.90
5560;DHT22;2803;47.916;8.074;2023-03-20T11:01:53;13.20;99.90
5560;DHT22;2803;47.916;8.074;2023-03-20T11:04:20;13.10;99.90
5560;DHT22;2803;47.916;8.074;2023-03-20T11:06:53;13.40;99.90
5560;DHT22;2803;47.916;8.074;2023-03-20T11:09:23;12.70;99.90
5560;DHT22;2803;47.916;8.074;2023-03-20T11:11:55;12.60;99.90
5560;DHT22;2803;47.916;8.074;2023-03-20T11:14:23;12.40;99.90
5560;DHT22;2803;47.916;8.074;2023-03-20T11:16:51;11.90;99.90
5560;DHT22;2803;47.916;8.074;2023-03-20T11:19:19;12.10;99.90
5560;DHT22;2803;47.916;8.074;2023-03-20T11:21:49;12.00;99.90
5560;DHT22;2803;47.916;8.074;2023-03-20T11:24:24;12.00;99.90
5560;DHT22;2803;47.916;8.074;2023-03-20T11:26:52;11.80;99.90
5560;DHT22;2803;47.916;8.074;2023-03-20T11:29:23;12.00;99.90
5560;DHT22;2803;47.916;8.074;2023-03-20T11:31:52;11.90;99.90
5560;DHT22;2803;47.916;8.074;2023-03-20T11:34:22;12.10;99.90
5560;DHT22;2803;47.916;8.074;2023-03-20T11:36:54;12.40;99.90
5560;DHT22;2803;47.916;8.074;2023-03-20T11:39:24;12.30;99.90
5560;DHT22;2803;47.916;8.074;2023-03-20T11:41:54;12.40;99.90
5560;DHT22;2803;47.916;8.074;2023-03-20T11:44:23;12.60;99.90
5560;DHT22;2803;47.916;8.074;2023-03-20T11:46:55;13.00;99.90
5560;DHT22;2803;47.916;8.074;2023-03-20T11:49:24;13.70;99.90
5560;DHT22;2803;47.916;8.074;2023-03-20T11:51:53;13.50;99.90
5560;DHT22;2803;47.916;8.074;2023-03-20T11:54:24;13.50;99.90
5560;DHT22;2803;47.916;8.074;2023-03-20T11:56:53;13.40;99.90
5560;DHT22;2803;47.916;8.074;2023-03-20T11:59:21;13.20;99.90
5560;DHT22;2803;47.916;8.074;2023-03-20T12:01:49;13.20;99.90
5560;DHT22;2803;47.916;8.074;2023-03-20T12:04:19;13.30;99.90
5560;DHT22;2803;47.916;8.074;2023-03-20T12:06:49;13.50;99.90
5560;DHT22;2803;47.916;8.074;2023-03-20T12:09:27;14.00;99.90
5560;DHT22;2803;47.916;8.074;2023-03-20T12:11:58;13.90;99.90
5560;DHT22;2803;47.916;8.074;2023-03-20T12:14:31;13.90;99.90
5560;DHT22;2803;47.916;8.074;2023-03-20T12:17:12;13.90;99.90
5560;DHT22;2803;47.916;8.074;2023-03-20T12:19:44;13.70;99.90
5560;DHT22;2803;47.916;8.074;2023-03-20T12:22:18;13.40;99.90
5560;DHT22;2803;47.916;8.074;2023-03-20T12:24:54;13.70;99.90
5560;DHT22;2803;47.916;8.074;2023-03-20T12:27:27;13.50;99.90
5560;DHT22;2803;47.916;8.074;2023-03-20T12:29:59;13.70;99.90
5560;DHT22;2803;47.916;8.074;2023-03-20T12:32:32;14.00;99.90
5560;DHT22;2803;47.916;8.074;2023-03-20T12:35:04;14.20;99.90
5560;DHT22;2803;47.916;8.074;2023-03-20T12:37:32;14.10;99.90
5560;DHT22;2803;47.916;8.074;2023-03-20T12:40:01;14.00;99.90
5560;DHT22;2803;47.916;8.074;2023-03-20T12:42:37;14.00;99.90
5560;DHT22;2803;47.916;8.074;2023-03-20T12:45:11;13.90;99.90
5560;DHT22;2803;47.916;8.074;2023-03-20T12:47:50;14.00;99.90
5560;DHT22;2803;47.916;8.074;2023-03-20T12:50:27;14.20;99.90
5560;DHT22;2803;47.916;8.074;2023-03-20T12:53:04;14.10;99.90
5560;DHT22;2803;47.916;8.074;2023-03-20T12:55:41;14.00;99.90
5560;DHT22;2803;47.916;8.074;2023-03-20T12:58:19;14.00;99.90
5560;DHT22;2803;47.916;8.074;2023-03-20T13:00:53;14.00;99.90
5560;DHT22;2803;47.916;8.074;2023-03-20T13:03:35;14.40;99.90
5560;DHT22;2803;47.916;8.074;2023-03-20T13:06:08;15.00;99.90
5560;DHT22;2803;47.916;8.074;2023-03-20T13:08:50;15.00;99.90
5560;DHT22;2803;47.916;8.074;2023-03-20T13:11:28;14.90;99.90
5560;DHT22;2803;47.916;8.074;2023-03-20T13:14:00;14.60;99.90
5560;DHT22;2803;47.916;8.074;2023-03-20T13:16:37;15.00;99.90
5560;DHT22;2803;47.916;8.074;2023-03-20T13:19:12;14.80;99.90
5560;DHT22;2803;47.916;8.074;2023-03-20T13:21:48;14.90;99.90
5560;DHT22;2803;47.916;8.074;2023-03-20T13:24:31;14.70;99.90
5560;DHT22;2803;47.916;8.074;2023-03-20T13:27:07;14.40;99.90
5560;DHT22;2803;47.916;8.074;2023-03-20T13:29:43;15.00;99.90
5560;DHT22;2803;47.916;8.074;2023-03-20T13:32:20;15.30;99.90
5560;DHT22;2803;47.916;8.074;2023-03-20T13:34:57;15.70;99.90
5560;DHT22;2803;47.916;8.074;2023-03-20T13:37:28;15.90;99.90
5560;DHT22;2803;47.916;8.074;2023-03-20T13:40:04;15.70;99.90
5560;DHT22;2803;47.916;8.074;2023-03-20T13:42:36;15.70;99.90
5560;DHT22;2803;47.916;8.074;2023-03-20T13:45:08;15.90;99.90
5560;DHT22;2803;47.916;8.074;2023-03-20T13:47:39;15.80;99.90
5560;DHT22;2803;47.916;8.074;2023-03-20T13:50:22;15.20;99.90
5560;DHT22;2803;47.916;8.074;2023-03-20T13:52:55;15.00;99.90
5560;DHT22;2803;47.916;8.074;2023-03-20T13:55:28;14.50;99.90
5560;DHT22;2803;47.916;8.074;2023-03-20T13:58:09;14.50;99.90
5560;DHT22;2803;47.916;8.074;2023-03-20T14:00:45;14.50;99.90
5560;DHT22;2803;47.916;8.074;2023-03-20T14:03:17;14.40;99.90
5560;DHT22;2803;47.916;8.074;2023-03-20T14:05:46;14.60;99.90
5560;DHT22;2803;47.916;8.074;2023-03-20T14:08:23;14.10;99.90
5560;DHT22;2803;47.916;8.074;2023-03-20T14:11:05;14.20;99.90
5560;DHT22;2803;47.916;8.074;2023-03-20T14:13:35;14.20;99.90
5560;DHT22;2803;47.916;8.074;2023-03-20T14:16:06;14.20;99.90
5560;DHT22;2803;47.916;8.074;2023-03-20T14:18:34;14.10;99.90
5560;DHT22;2803;47.916;8.074;2023-03-20T14:21:09;13.90;99.90
5560;DHT22;2803;47.916;8.074;2023-03-20T14:23:39;13.80;99.90
5560;DHT22;2803;47.916;8.074;2023-03-20T14:26:09;13.70;99.90
5560;DHT22;2803;47.916;8.074;2023-03-20T14:28:53;13.70;99.90
5560;DHT22;2803;47.916;8.074;2023-03-20T14:31:22;13.50;99.90
5560;DHT22;2803;47.916;8.074;2023-03-20T14:33:58;13.60;99.90
5560;DHT22;2803;47.916;8.074;2023-03-20T14:36:27;13.70;99.90
5560;DHT22;2803;47.916;8.074;2023-03-20T14:39:03;13.70;99.90
5560;DHT22;2803;47.916;8.074;2023-03-20T14:41:39;13.90;99.90
5560;DHT22;2803;47.916;8.074;2023-03-20T14:44:23;13.70;99.90
5560;DHT22;2803;47.916;8.074;2023-03-20T14:46:51;13.30;99.90
5560;DHT22;2803;47.916;8.074;2023-03-20T14:49:33;13.90;99.90
5560;DHT22;2803;47.916;8.074;2023-03-20T14:52:14;14.20;99.90
5560;DHT22;2803;47.916;8.074;2023-03-20T14:54:51;14.20;99.90
5560;DHT22;2803;47.916;8.074;2023-03-20T14:57:26;14.40;99.90
5560;DHT22;2803;47.916;8.074;2023-03-20T14:59:56;14.30;99.90
5560;DHT22;2803;47.916;8.074;2023-03-20T15:02:26;14.20;99.90
5560;DHT22;2803;47.916;8.074;2023-03-20T15:04:53;14.00;99.90
5560;DHT22;2803;47.916;8.074;2023-03-20T15:07:23;14.10;99.90
5560;DHT22;2803;47.916;8.074;2023-03-20T15:09:52;14.00;99.90
5560;DHT22;2803;47.916;8.074;2023-03-20T15:12:22;14.00;99.90
5560;DHT22;2803;47.916;8.074;2023-03-20T15:14:52;14.20;99.90
5560;DHT22;2803;47.916;8.074;2023-03-20T15:17:23;14.50;99.90
5560;DHT22;2803;47.916;8.074;2023-03-20T15:19:59;14.50;99.90
5560;DHT22;2803;47.916;8.074;2023-03-20T15:22:25;14.30;99.90
5560;DHT22;2803;47.916;8.074;2023-03-20T15:24:53;14.30;99.90
5560;DHT22;2803;47.916;8.074;2023-03-20T15:27:22;14.30;99.90
5560;DHT22;2803;47.916;8.074;2023-03-20T15:29:52;14.20;99.90
5560;DHT22;2803;47.916;8.074;2023-03-20T15:32:21;14.20;99.90
5560;DHT22;2803;47.916;8.074;2023-03-20T15:34:48;14.40;99.90
5560;DHT22;2803;47.916;8.074;2023-03-20T15:37:18;14.40;99.90
5560;DHT22;2803;47.916;8.074;2023-03-20T15:39:47;14.40;99.90
5560;DHT22;2803;47.916;8.074;2023-03-20T15:42:19;14.30;99.90
5560;DHT22;2803;47.916;8.074;2023-03-20T15:44:48;13.80;99.90
5560;DHT22;2803;47.916;8.074;2023-03-20T15:47:18;14.00;99.90
5560;DHT22;2803;47.916;8.074;2023-03-20T15:49:51;13.90;99.90
5560;DHT22;2803;47.916;8.074;2023-03-20T15:52:24;14.10;99.90
5560;DHT22;2803;47.916;8.074;2023-03-20T15:54:52;13.90;99.90
5560;DHT22;2803;47.916;8.074;2023-03-20T15:57:23;13.90;99.90
5560;DHT22;2803;47.916;8.074;2023-03-20T15:59:50;13.70;99.90
5560;DHT22;2803;47.916;8.074;2023-03-20T16:02:17;13.80;99.90
5560;DHT22;2803;47.916;8.074;2023-03-20T16:04:46;13.90;99.90
5560;DHT22;2803;47.916;8.074;2023-03-20T16:07:22;13.90;99.90
5560;DHT22;2803;47.916;8.074;2023-03-20T16:09:49;13.70;99.90
5560;DHT22;2803;47.916;8.074;2023-03-20T16:12:17;13.80;99.90
5560;DHT22;2803;47.916;8.074;2023-03-20T16:14:48;13.90;99.90
5560;DHT22;2803;47.916;8.074;2023-03-20T16:17:16;13.90;99.90
5560;DHT22;2803;47.916;8.074;2023-03-20T16:19:43;14.00;99.90
5560;DHT22;2803;47.916;8.074;2023-03-20T16:22:17;14.00;99.90
5560;DHT22;2803;47.916;8.074;2023-03-20T16:24:49;14.20;99.90
5560;DHT22;2803;47.916;8.074;2023-03-20T16:27:22;14.00;99.90
5560;DHT22;2803;47.916;8.074;2023-03-20T16:29:51;14.30;99.90